Time;durP1;ratioP1;P1;durP2;ratioP2;P2;SDS_P1;SDS_P2;PMS_P1;PMS_P2;Temp;Humidity;BMP_temperature;BMP_pressure;BME280_temperature;BME280_humidity;BME280_pressure;Samples;Min_cycle;Max_cycle;Signal;HPM_P1;HPM_P2
2024/01/20 01:11:21;;;;;;;34.70;12.30;;;;;;;-2.62;66.47;101847.31;5804949;23;20584;-78
2024/01/20 02:02:21;;;;;;;36.70;13.97;;;;;;;-2.75;64.07;101889.13;5705945;23;20698;-78
2024/01/20 02:57:46;;;;;;;;;;;;;;;;;;;;;
2024/01/20 07:17:58;;;;;;;26.97;11.17;;;;;;;-4.05;62.42;102119.34;4922890;29;20472;-66
2024/01/20 07:21:07;;;;;;;26.50;11.00;;;;;;;-4.05;62.39;102125.38;4894123;29;20449;-66
2024/01/20 07:26:59;;;;;;;29.50;10.93;;;;;;;-4.03;62.59;102133.97;4895164;23;21009;-66
2024/01/20 07:29:28;;;;;;;32.73;11.70;;;;;;;-4.02;62.64;102147.78;4916239;29;20461;-64
2024/01/20 07:31:56;;;;;;;32.43;15.23;;;;;;;-3.98;62.84;102149.50;4919690;29;20846;-65
2024/01/20 07:34:25;;;;;;;30.20;12.20;;;;;;;-3.96;62.73;102150.34;4923107;29;20467;-65
2024/01/20 07:36:53;;;;;;;29.97;12.40;;;;;;;-3.93;62.49;102150.28;4919636;29;20470;-65
2024/01/20 07:39:20;;;;;;;28.53;11.97;;;;;;;-3.92;62.44;102150.28;4920193;29;20535;-65
2024/01/20 07:41:48;;;;;;;27.87;11.03;;;;;;;-3.92;62.17;102158.06;4921185;29;20447;-67
2024/01/20 07:44:16;;;;;;;35.03;12.67;;;;;;;-3.94;61.95;102151.16;4918720;29;21087;-67
2024/01/20 07:46:45;;;;;;;30.07;12.10;;;;;;;-3.97;62.04;102170.22;4920971;29;20519;-65
2024/01/20 07:49:14;;;;;;;33.03;13.73;;;;;;;-4.03;62.15;102166.81;4919077;29;20512;-65
2024/01/20 07:51:41;;;;;;;31.63;13.23;;;;;;;-4.03;62.35;102162.47;4924231;29;20504;-67
2024/01/20 07:54:10;;;;;;;35.63;12.90;;;;;;;-4.02;62.12;102155.56;4921660;29;21141;-65
2024/01/20 07:56:38;;;;;;;31.83;13.10;;;;;;;-4.04;62.21;102167.66;4919697;29;20558;-65
2024/01/20 07:59:06;;;;;;;36.07;12.97;;;;;;;-4.06;61.99;102169.44;4922068;29;20456;-66
2024/01/20 08:01:34;;;;;;;35.03;12.77;;;;;;;-4.03;62.30;102167.66;4918524;29;20935;-66
2024/01/20 08:04:04;;;;;;;33.00;13.10;;;;;;;-4.01;62.46;102168.50;4919936;29;20575;-66
2024/01/20 08:06:31;;;;;;;36.37;13.50;;;;;;;-3.98;62.59;102172.81;4920760;29;20456;-65
2024/01/20 08:08:59;;;;;;;31.43;12.87;;;;;;;-3.93;62.50;102171.03;4920232;29;20480;-65
2024/01/20 08:11:27;;;;;;;33.13;14.43;;;;;;;-3.95;62.42;102171.03;4920096;29;20462;-64
2024/01/20 08:13:55;;;;;;;39.33;14.13;;;;;;;-3.88;62.34;102185.69;4919124;29;20555;-64
2024/01/20 08:16:25;;;;;;;29.30;12.50;;;;;;;-3.86;62.09;102183.03;4918066;29;20515;-63
2024/01/20 08:18:52;;;;;;;30.67;13.10;;;;;;;-3.81;61.61;102181.28;4919572;29;20468;-67
2024/01/20 08:21:22;;;;;;;33.63;13.27;;;;;;;-3.76;61.19;102174.31;4919388;29;20452;-63
2024/01/20 08:23:51;;;;;;;34.00;14.20;;;;;;;-3.71;60.84;102180.31;4917627;29;20562;-64
2024/01/20 08:26:19;;;;;;;33.93;14.23;;;;;;;-3.63;60.81;102186.28;4911974;29;20460;-65
2024/01/20 08:28:47;;;;;;;33.20;13.70;;;;;;;-3.56;60.57;102194.84;4912206;29;20465;-64
2024/01/20 08:31:15;;;;;;;33.43;13.70;;;;;;;-3.52;60.92;102199.97;4913367;29;20460;-66
2024/01/20 08:33:43;;;;;;;34.90;13.13;;;;;;;-3.53;61.23;102200.00;4914904;29;20452;-67
2024/01/20 08:36:11;;;;;;;30.53;13.03;;;;;;;-3.46;61.47;102205.09;4914285;29;20520;-65
2024/01/20 08:38:40;;;;;;;36.27;13.37;;;;;;;-3.41;61.97;102198.13;4914908;29;21062;-65
2024/01/20 08:41:09;;;;;;;32.50;13.50;;;;;;;-3.41;61.87;102203.31;4914545;29;20548;-65
2024/01/20 08:43:39;;;;;;;35.40;13.80;;;;;;;-3.33;61.39;102205.81;4912309;29;20564;-65
2024/01/20 08:46:07;;;;;;;43.20;13.93;;;;;;;-3.26;61.04;102207.47;4913768;29;20445;-65
2024/01/20 08:48:36;;;;;;;32.23;13.40;;;;;;;-3.20;60.61;102225.56;4915518;29;20441;-65
2024/01/20 08:51:05;;;;;;;30.87;11.90;;;;;;;-3.17;60.17;102222.06;4913879;29;20453;-65
2024/01/20 08:53:33;;;;;;;32.27;12.93;;;;;;;-3.03;60.12;102221.00;4913796;29;20583;-65
2024/01/20 08:56:03;;;;;;;31.43;13.03;;;;;;;-2.98;59.49;102214.88;4916915;29;20949;-65
2024/01/20 08:58:31;;;;;;;26.27;11.63;;;;;;;-2.99;59.65;102221.81;4913734;29;20543;-65
2024/01/20 09:00:59;;;;;;;27.40;12.33;;;;;;;-2.93;59.45;102226.09;4915025;29;20501;-64
2024/01/20 09:03:27;;;;;;;30.23;12.93;;;;;;;-2.88;59.90;102230.34;4917707;29;20453;-65
2024/01/20 09:05:55;;;;;;;32.93;13.27;;;;;;;-2.85;60.32;102229.44;4915676;29;20495;-66
2024/01/20 09:08:23;;;;;;;34.20;13.07;;;;;;;-2.83;60.49;102223.34;4915778;29;20461;-65
2024/01/20 09:10:50;;;;;;;38.77;14.10;;;;;;;-2.79;60.54;102225.03;4913016;29;20458;-66
2024/01/20 09:13:20;;;;;;;38.57;14.73;;;;;;;-2.69;60.63;102228.34;4913753;29;20952;-65
2024/01/20 09:15:47;;;;;;;36.80;13.97;;;;;;;-2.55;60.26;102236.78;4915017;29;20477;-65
2024/01/20 09:18:17;;;;;;;37.67;13.90;;;;;;;-2.36;59.55;102235.66;4918575;29;20448;-65
2024/01/20 09:20:46;;;;;;;33.87;14.17;;;;;;;-2.10;58.88;102237.84;4914987;29;20498;-65
2024/01/20 09:23:14;;;;;;;38.70;15.10;;;;;;;-1.85;58.35;102242.66;4912833;29;20570;-65
2024/01/20 09:25:42;;;;;;;41.60;15.23;;;;;;;-1.09;56.81;102244.66;4914326;29;20502;-66
2024/01/20 09:28:10;;;;;;;42.80;15.47;;;;;;;-0.02;54.60;102243.13;4912770;29;20474;-66
2024/01/20 09:30:39;;;;;;;37.37;14.83;;;;;;;1.50;51.30;102246.72;4915729;29;20459;-65
2024/01/20 09:33:07;;;;;;;37.50;15.93;;;;;;;2.07;48.88;102257.09;4912433;29;20507;-65
2024/01/20 09:35:35;;;;;;;31.60;13.87;;;;;;;2.04;47.98;102246.72;4914171;29;20218;-64
2024/01/20 09:38:03;;;;;;;32.60;14.07;;;;;;;1.81;48.25;102247.47;4916513;29;20743;-65
2024/01/20 09:40:32;;;;;;;31.80;13.87;;;;;;;2.26;47.48;102246.88;4914015;29;20582;-64
2024/01/20 09:43:00;;;;;;;34.70;14.20;;;;;;;3.51;45.55;102244.91;4914853;29;20643;-66
2024/01/20 09:45:28;;;;;;;36.17;16.30;;;;;;;4.44;44.09;102247.19;4913690;29;20603;-66
2024/01/20 09:47:58;;;;;;;39.87;15.97;;;;;;;5.04;42.02;102242.75;4913884;29;20607;-64
2024/01/20 09:50:26;;;;;;;38.50;16.53;;;;;;;5.58;40.86;102234.09;4914384;29;20220;-65
2024/01/20 09:52:58;;;;;;;42.63;18.20;;;;;;;5.90;40.25;102228.13;4910580;29;20563;-65
2024/01/20 09:55:27;;;;;;;35.47;16.43;;;;;;;6.36;39.58;102231.97;4916435;29;20307;-65
2024/01/20 09:57:57;;;;;;;38.40;17.10;;;;;;;6.42;38.94;102229.00;4912629;29;20223;-65
2024/01/20 10:00:26;;;;;;;33.90;15.63;;;;;;;6.26;38.77;102224.59;4912056;29;20243;-65
2024/01/20 10:02:54;;;;;;;33.17;15.87;;;;;;;5.45;40.32;102231.19;4914432;29;20322;-65
2024/01/20 10:05:25;;;;;;;30.40;16.07;;;;;;;4.67;41.51;102231.25;4910497;29;20237;-66
2024/01/20 10:07:53;;;;;;;40.37;18.33;;;;;;;3.90;43.24;102238.06;4911518;29;20219;-64
2024/01/20 10:10:22;;;;;;;42.00;17.83;;;;;;;3.29;44.49;102245.72;4911225;29;20220;-65
2024/01/20 10:12:51;;;;;;;40.93;18.60;;;;;;;3.32;44.79;102250.88;4912520;29;20215;-66
2024/01/20 10:15:22;;;;;;;39.50;17.53;;;;;;;2.88;45.88;102249.06;4912543;29;20672;-64
2024/01/20 10:17:50;;;;;;;42.70;18.63;;;;;;;2.97;46.17;102246.94;4912171;29;20585;-64
2024/01/20 10:20:20;;;;;;;34.73;16.77;;;;;;;2.86;46.83;102249.09;4912441;29;20270;-65
2024/01/20 10:22:50;;;;;;;41.00;18.07;;;;;;;3.13;46.70;102244.59;4913511;29;20641;-64
2024/01/20 10:25:19;;;;;;;37.03;17.20;;;;;;;3.60;46.20;102253.28;4915245;29;20717;-64
2024/01/20 10:27:48;;;;;;;39.07;18.20;;;;;;;4.46;44.53;102245.34;4913423;29;20242;-64
2024/01/20 10:30:16;;;;;;;44.00;18.73;;;;;;;4.35;44.41;102252.81;4915235;29;20290;-64
2024/01/20 10:32:47;;;;;;;42.63;18.63;;;;;;;3.98;45.27;102246.47;4911250;29;20316;-65
2024/01/20 10:35:35;;;;;;;38.77;18.03;;;;;;;3.74;45.87;102231.72;4910096;29;20216;-66
2024/01/20 10:38:10;;;;;;;37.27;18.67;;;;;;;4.15;45.55;102230.03;4912517;29;20671;-64
2024/01/20 10:40:38;;;;;;;41.33;19.00;;;;;;;4.45;45.16;102220.84;4916744;29;20211;-65
2024/01/20 10:43:13;;;;;;;41.37;18.70;;;;;;;5.08;44.18;102221.53;4916507;29;20218;-64
2024/01/20 10:45:47;;;;;;;44.10;19.37;;;;;;;5.88;42.93;102226.53;4915864;29;20224;-65
2024/01/20 10:48:18;;;;;;;40.53;19.67;;;;;;;5.52;42.84;102223.84;4916795;29;20213;-64
2024/01/20 10:50:51;;;;;;;42.43;21.47;;;;;;;4.72;44.27;102213.53;4915432;29;20233;-64
2024/01/20 10:53:21;;;;;;;42.07;21.63;;;;;;;5.96;43.19;102216.47;4915589;29;20299;-66
2024/01/20 10:55:50;;;;;;;42.97;21.27;;;;;;;7.78;40.34;102203.97;4913906;29;20216;-67
2024/01/20 10:58:22;;;;;;;43.03;21.03;;;;;;;9.15;38.03;102197.50;4915672;29;20236;-65
2024/01/20 11:00:52;;;;;;;37.43;20.17;;;;;;;9.13;37.55;102194.94;4916091;29;20294;-65
2024/01/20 11:03:21;;;;;;;40.37;22.60;;;;;;;8.57;38.36;102195.78;4911902;29;20576;-65
2024/01/20 11:05:49;;;;;;;40.77;24.70;;;;;;;7.88;39.32;102197.22;4914985;29;20269;-65
2024/01/20 11:08:26;;;;;;;38.73;22.27;;;;;;;7.36;40.18;102187.94;4916255;29;20217;-64
2024/01/20 11:10:55;;;;;;;44.40;23.63;;;;;;;6.68;41.42;102197.81;4914475;29;20953;-66
2024/01/20 11:13:25;;;;;;;37.90;21.03;;;;;;;6.12;42.41;102206.00;4918184;29;20211;-65
2024/01/20 11:15:54;;;;;;;47.70;25.87;;;;;;;5.64;43.26;102200.41;4917198;29;20730;-65
2024/01/20 11:18:23;;;;;;;43.60;23.57;;;;;;;5.25;44.12;102202.34;4912741;29;20225;-65
2024/01/20 11:20:57;;;;;;;43.53;23.43;;;;;;;4.89;45.07;102189.97;4915971;29;20217;-65
2024/01/20 11:23:27;;;;;;;45.63;25.63;;;;;;;5.08;45.46;102186.50;4914742;29;20284;-64
2024/01/20 11:25:56;;;;;;;46.97;25.20;;;;;;;5.50;44.83;102192.34;4918398;29;20228;-64
2024/01/20 11:28:25;;;;;;;46.27;24.73;;;;;;;5.87;44.20;102187.94;4915473;29;20589;-65
2024/01/20 11:30:53;;;;;;;47.77;26.23;;;;;;;6.55;43.16;102194.09;4914144;29;20844;-65
2024/01/20 11:33:22;;;;;;;46.10;24.80;;;;;;;7.49;41.64;102184.50;4914025;29;20303;-65
2024/01/20 11:35:52;;;;;;;54.60;27.57;;;;;;;8.20;40.21;102178.63;4914941;29;20215;-66
2024/01/20 11:38:20;;;;;;;48.63;25.10;;;;;;;7.87;40.45;102178.81;4913287;29;20770;-64
2024/01/20 11:40:59;;;;;;;53.90;27.33;;;;;;;7.64;40.69;102177.53;4914562;29;21049;-65
2024/01/20 11:43:27;;;;;;;51.13;26.07;;;;;;;8.26;39.95;102175.63;4915348;29;20278;-63
2024/01/20 11:45:56;;;;;;;47.80;26.57;;;;;;;8.92;38.88;102175.97;4915170;29;20449;-65
2024/01/20 11:48:24;;;;;;;50.80;27.63;;;;;;;9.12;38.73;102172.06;4914578;29;20213;-64
2024/01/20 11:50:53;;;;;;;49.23;27.37;;;;;;;9.15;38.41;102174.50;4915754;29;20742;-65
2024/01/20 11:53:21;;;;;;;49.73;26.70;;;;;;;8.05;39.23;102182.19;4915591;29;20240;-66
2024/01/20 11:55:54;;;;;;;48.10;25.57;;;;;;;6.70;41.56;102182.75;4911704;29;20247;-64
2024/01/20 11:58:23;;;;;;;47.10;26.07;;;;;;;5.99;43.13;102188.19;4912182;29;20283;-64
2024/01/20 12:00:52;;;;;;;48.73;25.63;;;;;;;5.41;44.24;102179.63;4914394;29;20223;-65
2024/01/20 12:03:20;;;;;;;97.13;27.17;;;;;;;4.88;45.21;102183.00;4913138;29;20326;-65
2024/01/20 12:05:49;;;;;;;46.10;24.87;;;;;;;4.54;46.18;102174.94;4912104;29;20374;-64
2024/01/20 12:08:17;;;;;;;55.97;26.83;;;;;;;4.39;46.74;102170.34;4915986;29;20221;-63
2024/01/20 12:10:46;;;;;;;49.93;26.70;;;;;;;4.44;46.96;102168.38;4914525;29;20626;-64
2024/01/20 12:13:15;;;;;;;55.50;26.03;;;;;;;4.19;47.19;102179.09;4913900;29;20803;-64
2024/01/20 12:15:47;;;;;;;50.47;24.40;;;;;;;3.96;47.76;102177.44;4911340;29;20237;-64
2024/01/20 12:18:17;;;;;;;52.67;23.40;;;;;;;3.68;49.23;102180.38;4913710;29;20208;-65
2024/01/20 12:20:45;;;;;;;45.70;22.17;;;;;;;3.59;49.21;102179.88;4912269;29;20214;-64
2024/01/20 12:23:18;;;;;;;52.13;23.63;;;;;;;3.52;49.31;102179.25;4910763;29;20236;-64
2024/01/20 12:25:46;;;;;;;49.63;23.13;;;;;;;3.36;49.66;102168.53;4910011;29;20229;-65
2024/01/20 12:28:16;;;;;;;49.37;23.07;;;;;;;3.30;50.06;102162.69;4914215;29;20305;-64
2024/01/20 12:30:45;;;;;;;56.70;23.77;;;;;;;3.17;50.17;102167.53;4912826;29;20263;-66
2024/01/20 12:33:13;;;;;;;54.00;22.77;;;;;;;2.97;50.96;102170.09;4913995;29;20219;-65
2024/01/20 12:35:41;;;;;;;54.13;22.43;;;;;;;2.91;51.08;102155.44;4912675;29;20237;-66
2024/01/20 12:38:09;;;;;;;52.67;22.67;;;;;;;2.70;50.82;102147.53;4912300;29;20299;-65
2024/01/20 12:40:37;;;;;;;45.93;21.67;;;;;;;2.44;51.38;102143.25;4910779;29;20586;-64
2024/01/20 12:43:05;;;;;;;56.87;22.20;;;;;;;2.32;52.05;102149.78;4913093;29;20249;-65
2024/01/20 12:45:33;;;;;;;53.70;22.90;;;;;;;2.21;52.85;102141.44;4912983;29;20226;-65
2024/01/20 12:48:03;;;;;;;57.17;23.10;;;;;;;2.13;52.83;102130.41;4914850;29;20285;-66
2024/01/20 12:50:31;;;;;;;57.40;23.27;;;;;;;2.12;53.56;102136.53;4913010;29;20209;-65
2024/01/20 12:52:59;;;;;;;59.40;22.70;;;;;;;2.06;53.84;102142.00;4914083;29;20218;-64
2024/01/20 12:55:27;;;;;;;62.10;24.50;;;;;;;1.97;53.93;102124.84;4915423;29;20446;-64
2024/01/20 12:57:54;;;;;;;60.10;22.27;;;;;;;1.97;54.31;102134.47;4914728;29;20298;-65
2024/01/20 13:00:22;;;;;;;60.17;24.93;;;;;;;1.88;54.52;102123.41;4914774;29;20308;-66
2024/01/20 13:02:50;;;;;;;58.30;23.60;;;;;;;1.89;55.17;102125.13;4914315;29;20696;-67
2024/01/20 13:05:19;;;;;;;54.93;23.80;;;;;;;1.89;55.15;102124.25;4912449;29;20765;-66
2024/01/20 13:07:47;;;;;;;51.90;24.03;;;;;;;1.86;55.53;102129.59;4912993;29;20648;-64
2024/01/20 13:10:15;;;;;;;55.17;23.63;;;;;;;1.75;55.89;102126.50;4914093;29;20245;-65
2024/01/20 13:12:43;;;;;;;54.70;22.30;;;;;;;1.66;56.30;102130.28;4914464;29;20279;-65
2024/01/20 13:15:11;;;;;;;59.63;22.87;;;;;;;1.51;56.79;102117.69;4913916;29;20933;-66
2024/01/20 13:17:41;;;;;;;56.67;24.00;;;;;;;1.43;57.37;102114.47;4915026;29;20239;-64
2024/01/20 13:20:10;;;;;;;58.43;24.23;;;;;;;1.27;57.86;102102.81;4911735;29;20295;-66
2024/01/20 13:22:39;;;;;;;56.37;24.03;;;;;;;1.14;58.75;102105.78;4913253;29;20273;-66
2024/01/20 13:25:08;;;;;;;61.47;23.30;;;;;;;1.11;59.29;102103.31;4909950;29;20514;-63
2024/01/20 13:27:36;;;;;;;65.00;25.80;;;;;;;1.13;59.51;102105.88;4910540;29;20237;-66
2024/01/20 13:30:05;;;;;;;66.93;25.33;;;;;;;1.11;60.30;102108.53;4913029;29;20217;-68
2024/01/20 13:32:33;;;;;;;70.00;27.30;;;;;;;1.06;60.46;102099.97;4912441;29;20226;-69
2024/01/20 13:35:01;;;;;;;67.90;26.37;;;;;;;1.08;60.82;102107.75;4915878;29;20319;-66
2024/01/20 13:37:29;;;;;;;68.20;26.93;;;;;;;1.06;61.00;102107.78;4913409;29;20212;-68
2024/01/20 13:39:58;;;;;;;67.20;26.47;;;;;;;1.04;61.08;102104.41;4916472;29;20236;-67
2024/01/20 13:42:26;;;;;;;64.97;27.53;;;;;;;0.93;61.31;102100.41;4914656;29;20320;-65
2024/01/20 13:44:54;;;;;;;64.60;26.10;;;;;;;0.86;61.62;102101.50;4913225;29;20325;-66
2024/01/20 13:47:22;;;;;;;61.33;27.40;;;;;;;0.75;62.03;102100.06;4914910;29;20248;-65
2024/01/20 13:49:49;;;;;;;62.13;25.73;;;;;;;0.77;62.28;102097.41;4914196;29;20216;-66
2024/01/20 13:52:17;;;;;;;62.27;24.83;;;;;;;0.77;62.44;102105.25;4913844;29;20220;-65
2024/01/20 13:54:45;;;;;;;60.20;24.83;;;;;;;0.67;62.63;102096.81;4914358;29;20220;-66
2024/01/20 13:57:14;;;;;;;61.97;26.63;;;;;;;0.59;62.94;102092.72;4912604;29;21001;-65
2024/01/20 13:59:42;;;;;;;70.60;26.53;;;;;;;0.56;63.03;102098.03;4915779;29;20323;-65
2024/01/20 14:02:10;;;;;;;61.67;25.70;;;;;;;0.52;63.36;102102.50;4913146;29;20731;-64
2024/01/20 14:04:39;;;;;;;61.37;24.83;;;;;;;0.52;63.80;102105.13;4912344;29;21307;-65
2024/01/20 14:07:08;;;;;;;63.90;25.00;;;;;;;0.51;63.95;102110.38;4914374;29;20291;-64
2024/01/20 14:09:36;;;;;;;61.90;24.80;;;;;;;0.50;64.17;102106.06;4912451;29;20212;-64
2024/01/20 14:12:05;;;;;;;67.00;26.80;;;;;;;0.54;64.13;102094.59;4914200;29;20214;-64
2024/01/20 14:14:35;;;;;;;64.73;26.20;;;;;;;0.63;64.54;102099.56;4915156;29;20243;-64
2024/01/20 14:17:04;;;;;;;64.77;26.93;;;;;;;0.64;64.63;102088.22;4915748;29;21145;-65
2024/01/20 14:19:32;;;;;;;66.33;26.77;;;;;;;0.58;64.42;102088.41;4916742;29;20601;-65
2024/01/20 14:22:00;;;;;;;64.20;26.43;;;;;;;0.51;64.74;102095.56;4915118;29;20264;-67
2024/01/20 14:24:28;;;;;;;67.33;26.43;;;;;;;0.50;65.29;102093.84;4916875;29;20730;-67
2024/01/20 14:26:56;;;;;;;73.83;27.40;;;;;;;0.50;66.20;102096.47;4916099;29;20312;-65
2024/01/20 14:29:24;;;;;;;65.47;26.80;;;;;;;0.53;66.58;102105.97;4916660;29;20209;-65
2024/01/20 14:31:54;;;;;;;69.33;27.93;;;;;;;0.50;66.45;102099.06;4919052;29;20204;-65
2024/01/20 14:34:23;;;;;;;72.80;28.03;;;;;;;0.45;66.53;102100.09;4917547;29;20213;-64
2024/01/20 14:36:52;;;;;;;77.83;28.93;;;;;;;0.46;66.95;102100.06;4916421;29;20212;-66
2024/01/20 14:39:23;;;;;;;68.47;28.27;;;;;;;0.47;67.03;102098.31;4916751;29;20308;-64
2024/01/20 14:41:51;;;;;;;73.77;28.77;;;;;;;0.47;67.05;102103.53;4914984;29;20248;-65
2024/01/20 14:44:19;;;;;;;74.03;28.27;;;;;;;0.47;66.76;102108.75;4918614;29;20220;-64
2024/01/20 14:46:46;;;;;;;87.67;30.13;;;;;;;0.45;66.58;102102.69;4915835;29;20256;-64
2024/01/20 14:49:16;;;;;;;88.73;31.23;;;;;;;0.42;66.01;102105.41;4916498;29;20217;-65
2024/01/20 14:51:45;;;;;;;90.33;31.97;;;;;;;0.38;66.19;102100.28;4914768;29;20228;-64
2024/01/20 14:54:13;;;;;;;87.03;30.83;;;;;;;0.39;66.16;102093.31;4915739;29;20213;-66
2024/01/20 14:56:42;;;;;;;88.00;30.40;;;;;;;0.38;65.79;102092.44;4917598;29;20214;-67
2024/01/20 14:59:10;;;;;;;82.10;29.80;;;;;;;0.38;65.53;102105.50;4915575;29;20209;-65
2024/01/20 15:01:38;;;;;;;79.50;27.77;;;;;;;0.37;65.17;102103.78;4915794;29;20277;-64
2024/01/20 15:04:06;;;;;;;82.67;28.23;;;;;;;0.29;64.91;102107.50;4914253;29;20217;-64
2024/01/20 15:06:36;;;;;;;72.67;27.30;;;;;;;0.23;64.68;102118.13;4916773;29;20211;-66
2024/01/20 15:09:04;;;;;;;85.83;29.47;;;;;;;0.18;65.04;102126.06;4917487;29;20239;-65
2024/01/20 15:11:32;;;;;;;76.70;27.63;;;;;;;0.15;65.14;102131.38;4915792;29;20212;-64
2024/01/20 15:14:01;;;;;;;71.03;26.77;;;;;;;0.12;65.84;102136.66;4916790;29;20363;-66
2024/01/20 15:16:29;;;;;;;71.60;27.47;;;;;;;0.09;65.58;102136.75;4915182;29;20253;-64
2024/01/20 15:18:56;;;;;;;78.27;28.47;;;;;;;0.06;65.65;102133.38;4915893;29;20291;-63
2024/01/20 15:21:24;;;;;;;76.93;27.63;;;;;;;0.02;65.81;102137.81;4915074;29;20219;-65
2024/01/20 15:23:54;;;;;;;71.03;27.87;;;;;;;-0.03;65.68;102143.16;4915965;29;20236;-65
2024/01/20 15:26:21;;;;;;;72.93;27.87;;;;;;;-0.07;65.89;102143.25;4917091;29;20219;-65
2024/01/20 15:28:49;;;;;;;68.10;26.20;;;;;;;-0.14;65.78;102141.72;4916296;29;20240;-65
2024/01/20 15:31:17;;;;;;;72.77;25.90;;;;;;;-0.18;65.83;102146.19;4914066;29;20358;-66
2024/01/20 15:33:45;;;;;;;71.13;26.03;;;;;;;-0.25;65.85;102149.81;4914172;29;20280;-68
2024/01/20 15:36:14;;;;;;;68.70;26.67;;;;;;;-0.28;65.78;102146.44;4914596;29;20224;-67
2024/01/20 15:38:42;;;;;;;72.03;26.43;;;;;;;-0.33;65.76;102146.53;4915125;29;20271;-65
2024/01/20 15:41:11;;;;;;;69.23;25.63;;;;;;;-0.40;66.48;102151.06;4915607;29;20216;-65
2024/01/20 15:43:39;;;;;;;68.90;26.50;;;;;;;-0.43;66.67;102147.66;4915195;29;20268;-64
2024/01/20 15:46:06;;;;;;;64.30;24.73;;;;;;;-0.44;66.76;102143.38;4914871;29;20630;-66
2024/01/20 15:48:34;;;;;;;64.00;24.23;;;;;;;-0.47;67.03;102144.28;4914067;29;20236;-65
2024/01/20 15:51:02;;;;;;;63.93;25.10;;;;;;;-0.49;67.25;102140.84;4914778;29;20300;-65
2024/01/20 15:53:30;;;;;;;63.40;25.27;;;;;;;-0.48;67.22;102129.53;4918529;29;20246;-65
2024/01/20 15:55:59;;;;;;;62.90;25.13;;;;;;;-0.46;67.27;102125.16;4915980;29;20213;-64
2024/01/20 15:58:29;;;;;;;63.03;25.03;;;;;;;-0.47;67.41;102128.66;4911594;29;20261;-66
2024/01/20 16:00:56;;;;;;;67.97;26.03;;;;;;;-0.47;67.67;102122.56;4915053;29;20237;-65
2024/01/20 16:03:25;;;;;;;62.03;25.33;;;;;;;-0.46;67.54;102129.50;4908917;29;20227;-66
2024/01/20 16:05:52;;;;;;;70.47;27.50;;;;;;;-0.47;67.82;102128.66;4912664;29;20223;-65
2024/01/20 16:08:20;;;;;;;55.77;23.47;;;;;;;-0.50;67.81;102126.09;4914315;29;20240;-64
2024/01/20 16:10:48;;;;;;;65.37;25.53;;;;;;;-0.53;67.89;102128.78;4912870;29;20284;-64
2024/01/20 16:13:16;;;;;;;61.93;25.10;;;;;;;-0.56;67.93;102121.06;4911839;29;20295;-66
2024/01/20 16:15:46;;;;;;;66.13;25.13;;;;;;;-0.49;67.96;102124.34;4910931;29;20216;-64
2024/01/20 16:18:15;;;;;;;74.93;26.37;;;;;;;-0.46;68.15;102125.16;4912644;29;20212;-65
2024/01/20 16:20:43;;;;;;;63.70;24.87;;;;;;;-0.50;68.07;102128.72;4912561;29;20235;-64
2024/01/20 16:23:11;;;;;;;73.90;26.90;;;;;;;-0.45;68.41;102128.63;4910308;29;20324;-65
2024/01/20 16:25:39;;;;;;;76.63;28.00;;;;;;;-0.42;68.63;102120.69;4911634;29;20243;-65
2024/01/20 16:28:07;;;;;;;79.97;29.73;;;;;;;-0.43;68.70;102119.84;4914100;29;20778;-65
2024/01/20 16:30:35;;;;;;;76.60;29.57;;;;;;;-0.42;68.71;102116.34;4912018;29;20219;-65
2024/01/20 16:33:04;;;;;;;82.50;28.43;;;;;;;-0.40;68.92;102124.13;4913078;29;20215;-66
2024/01/20 16:35:32;;;;;;;83.07;28.87;;;;;;;-0.37;69.02;102113.63;4909162;29;20213;-64
2024/01/20 16:38:01;;;;;;;84.57;28.30;;;;;;;-0.32;68.85;102121.31;4911770;29;20212;-65
2024/01/20 16:40:29;;;;;;;74.73;26.77;;;;;;;-0.34;69.27;102113.53;4913186;29;20219;-64
2024/01/20 16:42:57;;;;;;;87.00;29.07;;;;;;;-0.41;69.53;102114.59;4910585;29;20222;-64
2024/01/20 16:45:25;;;;;;;76.30;28.67;;;;;;;-0.40;69.66;102111.09;4912571;29;20225;-65
2024/01/20 16:47:53;;;;;;;86.83;29.03;;;;;;;-0.45;69.79;102116.44;4912396;29;20208;-67
2024/01/20 16:50:24;;;;;;;94.00;28.60;;;;;;;-0.45;69.91;102121.66;4910828;29;20318;-68
2024/01/20 16:52:52;;;;;;;80.30;28.13;;;;;;;-0.48;69.92;102129.53;4913993;29;20287;-66
2024/01/20 16:55:19;;;;;;;80.77;27.00;;;;;;;-0.49;70.04;102130.44;4914193;29;20331;-64
2024/01/20 16:57:49;;;;;;;80.87;29.30;;;;;;;-0.51;70.06;102126.13;4909918;29;20820;-66
2024/01/20 17:00:18;;;;;;;96.90;31.63;;;;;;;-0.52;70.43;102122.66;4908955;29;20252;-66
2024/01/20 17:02:45;;;;;;;101.10;31.87;;;;;;;-0.52;70.51;102119.22;4910993;29;20246;-64
2024/01/20 17:05:14;;;;;;;98.83;32.00;;;;;;;-0.52;70.76;102121.81;4909280;29;20279;-65
2024/01/20 17:07:43;;;;;;;98.23;32.13;;;;;;;-0.55;70.73;102120.16;4913286;29;20563;-65
2024/01/20 17:10:13;;;;;;;89.93;29.97;;;;;;;-0.58;70.69;102120.22;4908295;29;20359;-66
2024/01/20 17:12:41;;;;;;;87.03;30.00;;;;;;;-0.60;70.62;102128.97;4911049;29;20219;-66
2024/01/20 17:15:10;;;;;;;91.33;31.47;;;;;;;-0.65;70.53;102121.28;4909496;29;20236;-66
2024/01/20 17:17:38;;;;;;;86.00;31.27;;;;;;;-0.64;70.54;102120.38;4911978;29;20220;-66
2024/01/20 17:20:07;;;;;;;101.07;30.00;;;;;;;-0.65;70.70;102123.03;4912409;29;20964;-67
2024/01/20 17:22:35;;;;;;;89.10;29.27;;;;;;;-0.67;70.51;102130.88;4909403;29;20213;-66
2024/01/20 17:25:05;;;;;;;85.03;29.07;;;;;;;-0.63;70.39;102136.88;4910136;29;20233;-67
2024/01/20 17:27:33;;;;;;;82.83;28.57;;;;;;;-0.58;70.38;102129.78;4908423;29;20227;-66
2024/01/20 17:30:00;;;;;;;91.87;31.03;;;;;;;-0.54;70.31;102132.31;4911252;29;20236;-67
2024/01/20 17:32:28;;;;;;;81.10;29.00;;;;;;;-0.54;69.76;102132.31;4907267;29;20305;-65
2024/01/20 17:34:57;;;;;;;74.03;26.07;;;;;;;-0.55;69.28;102134.94;4910362;29;20333;-65
2024/01/20 17:37:25;;;;;;;67.37;25.10;;;;;;;-0.57;68.66;102136.72;4909750;29;20238;-64
2024/01/20 17:39:54;;;;;;;80.50;28.90;;;;;;;-0.57;68.64;102137.56;4911521;29;20242;-65
2024/01/20 17:42:23;;;;;;;76.23;27.53;;;;;;;-0.59;68.63;102141.09;4912942;29;20211;-66
2024/01/20 17:44:51;;;;;;;73.50;27.03;;;;;;;-0.61;68.35;102140.28;4912179;29;20899;-63
2024/01/20 17:47:19;;;;;;;76.13;27.77;;;;;;;-0.67;68.20;102141.28;4916720;29;20862;-65
2024/01/20 17:49:47;;;;;;;70.13;26.30;;;;;;;-0.71;68.16;102136.19;4912390;29;20227;-65
2024/01/20 17:52:15;;;;;;;68.83;27.87;;;;;;;-0.80;68.37;102138.13;4915563;29;20215;-63
2024/01/20 17:54:43;;;;;;;70.33;26.73;;;;;;;-0.86;68.29;102129.56;4914791;29;20217;-65
2024/01/20 17:57:14;;;;;;;69.63;25.63;;;;;;;-0.93;68.25;102133.22;4916221;29;20222;-64
2024/01/20 17:59:43;;;;;;;72.07;26.07;;;;;;;-0.99;68.27;102134.22;4915391;29;20221;-64
2024/01/20 18:02:14;;;;;;;64.73;25.07;;;;;;;-1.04;68.39;102130.00;4917010;29;20215;-67
2024/01/20 18:04:42;;;;;;;66.97;26.60;;;;;;;-1.03;68.36;102129.09;4915803;29;20285;-66
2024/01/20 18:07:10;;;;;;;64.33;25.40;;;;;;;-1.02;68.08;102129.06;4917347;29;20211;-66
2024/01/20 18:09:38;;;;;;;67.20;25.80;;;;;;;-1.04;68.10;102132.59;4916213;29;20246;-64
2024/01/20 18:12:06;;;;;;;68.47;26.53;;;;;;;-1.05;68.22;102125.66;4915119;29;20215;-65
2024/01/20 18:14:34;;;;;;;68.43;26.67;;;;;;;-1.07;68.05;102130.06;4916389;29;20224;-65
2024/01/20 18:17:05;;;;;;;71.73;26.80;;;;;;;-1.05;68.39;102128.28;4915069;29;20342;-65
2024/01/20 18:19:33;;;;;;;65.80;24.47;;;;;;;-1.07;68.48;102127.47;4912746;29;20303;-66
2024/01/20 18:22:01;;;;;;;62.03;24.30;;;;;;;-1.06;68.49;102121.38;4912869;29;20221;-65
2024/01/20 18:24:29;;;;;;;62.70;24.33;;;;;;;-1.04;68.53;102112.63;4913320;29;20334;-65
2024/01/20 18:26:57;;;;;;;65.77;24.80;;;;;;;-1.00;68.38;102123.84;4916174;29;20215;-67
2024/01/20 18:29:25;;;;;;;61.53;24.47;;;;;;;-0.98;68.21;102129.88;4914444;29;20267;-65
2024/01/20 18:31:54;;;;;;;66.07;24.53;;;;;;;-0.98;68.30;102129.88;4913142;29;20247;-66
2024/01/20 18:34:23;;;;;;;66.60;25.27;;;;;;;-0.97;68.10;102127.25;4913572;29;20297;-68